sensor_id;sensor_type;location;lat;lon;timestamp;temperature;humidity
58983;DHT22;44771;49.982;8.560;2023-07-24T00:02:58;18.90;99.90
58983;DHT22;44771;49.982;8.560;2023-07-24T00:08:00;18.90;99.90
58983;DHT22;44771;49.982;8.560;2023-07-24T00:13:01;18.90;99.90
58983;DHT22;44771;49.982;8.560;2023-07-24T00:18:05;18.90;99.90
58983;DHT22;44771;49.982;8.560;2023-07-24T00:23:07;18.90;99.90
58983;DHT22;44771;49.982;8.560;2023-07-24T00:28:08;18.80;99.90
58983;DHT22;44771;49.982;8.560;2023-07-24T00:33:12;18.70;99.90
58983;DHT22;44771;49.982;8.560;2023-07-24T00:38:13;18.60;99.90
58983;DHT22;44771;49.982;8.560;2023-07-24T00:43:16;18.50;99.90
58983;DHT22;44771;49.982;8.560;2023-07-24T00:48:19;18.40;99.90
58983;DHT22;44771;49.982;8.560;2023-07-24T00:53:21;18.30;99.90
58983;DHT22;44771;49.982;8.560;2023-07-24T00:58:23;18.20;99.90
58983;DHT22;44771;49.982;8.560;2023-07-24T01:03:30;18.20;99.90
58983;DHT22;44771;49.982;8.560;2023-07-24T01:08:33;18.20;99.90
58983;DHT22;44771;49.982;8.560;2023-07-24T01:13:38;18.20;99.90
58983;DHT22;44771;49.982;8.560;2023-07-24T01:18:43;18.10;99.90
58983;DHT22;44771;49.982;8.560;2023-07-24T01:23:55;18.00;99.90
58983;DHT22;44771;49.982;8.560;2023-07-24T01:29:01;17.80;99.90
58983;DHT22;44771;49.982;8.560;2023-07-24T01:34:03;17.70;99.90
58983;DHT22;44771;49.982;8.560;2023-07-24T01:39:05;17.90;99.90
58983;DHT22;44771;49.982;8.560;2023-07-24T01:44:09;18.30;99.90
58983;DHT22;44771;49.982;8.560;2023-07-24T01:49:11;18.50;99.90
58983;DHT22;44771;49.982;8.560;2023-07-24T01:54:12;18.50;99.90
58983;DHT22;44771;49.982;8.560;2023-07-24T01:59:16;18.60;99.90
58983;DHT22;44771;49.982;8.560;2023-07-24T02:04:17;18.70;99.90
58983;DHT22;44771;49.982;8.560;2023-07-24T02:09:19;18.70;99.90
58983;DHT22;44771;49.982;8.560;2023-07-24T02:14:22;18.80;99.90
58983;DHT22;44771;49.982;8.560;2023-07-24T02:19:24;18.80;99.90
58983;DHT22;44771;49.982;8.560;2023-07-24T02:24:26;18.60;99.90
58983;DHT22;44771;49.982;8.560;2023-07-24T02:29:29;18.40;99.90
58983;DHT22;44771;49.982;8.560;2023-07-24T02:34:31;18.30;99.90
58983;DHT22;44771;49.982;8.560;2023-07-24T02:39:32;18.20;99.90
58983;DHT22;44771;49.982;8.560;2023-07-24T02:44:35;18.20;99.90
58983;DHT22;44771;49.982;8.560;2023-07-24T02:49:37;18.10;99.90
58983;DHT22;44771;49.982;8.560;2023-07-24T02:54:39;18.00;99.90
58983;DHT22;44771;49.982;8.560;2023-07-24T02:59:42;18.00;99.90
58983;DHT22;44771;49.982;8.560;2023-07-24T03:04:44;17.90;99.90
58983;DHT22;44771;49.982;8.560;2023-07-24T03:09:46;17.90;99.90
58983;DHT22;44771;49.982;8.560;2023-07-24T03:14:49;17.90;99.90
58983;DHT22;44771;49.982;8.560;2023-07-24T03:19:51;18.00;99.90
58983;DHT22;44771;49.982;8.560;2023-07-24T03:24:52;18.00;99.90
58983;DHT22;44771;49.982;8.560;2023-07-24T03:29:55;18.00;99.90
58983;DHT22;44771;49.982;8.560;2023-07-24T03:34:57;17.80;99.90
58983;DHT22;44771;49.982;8.560;2023-07-24T03:39:59;17.70;99.90
58983;DHT22;44771;49.982;8.560;2023-07-24T03:45:03;17.60;99.90
58983;DHT22;44771;49.982;8.560;2023-07-24T03:50:05;17.50;99.90
58983;DHT22;44771;49.982;8.560;2023-07-24T03:55:08;17.40;99.90
58983;DHT22;44771;49.982;8.560;2023-07-24T04:00:12;17.20;99.90
58983;DHT22;44771;49.982;8.560;2023-07-24T04:05:14;17.10;99.90
58983;DHT22;44771;49.982;8.560;2023-07-24T04:10:16;17.00;99.90
58983;DHT22;44771;49.982;8.560;2023-07-24T04:15:20;17.10;99.90
58983;DHT22;44771;49.982;8.560;2023-07-24T04:20:21;17.30;99.90
58983;DHT22;44771;49.982;8.560;2023-07-24T04:25:23;17.40;99.90
58983;DHT22;44771;49.982;8.560;2023-07-24T04:30:26;17.50;99.90
58983;DHT22;44771;49.982;8.560;2023-07-24T04:35:30;17.70;99.90
58983;DHT22;44771;49.982;8.560;2023-07-24T04:40:32;17.80;99.90
58983;DHT22;44771;49.982;8.560;2023-07-24T04:45:35;17.90;99.90
58983;DHT22;44771;49.982;8.560;2023-07-24T04:50:37;18.00;99.90
58983;DHT22;44771;49.982;8.560;2023-07-24T04:55:39;18.10;99.90
58983;DHT22;44771;49.982;8.560;2023-07-24T05:00:42;18.10;99.90
58983;DHT22;44771;49.982;8.560;2023-07-24T05:05:43;18.10;99.90
58983;DHT22;44771;49.982;8.560;2023-07-24T05:10:53;18.10;99.90
58983;DHT22;44771;49.982;8.560;2023-07-24T05:15:56;18.10;99.90
58983;DHT22;44771;49.982;8.560;2023-07-24T05:20:58;18.10;99.90
58983;DHT22;44771;49.982;8.560;2023-07-24T05:26:00;18.20;99.90
58983;DHT22;44771;49.982;8.560;2023-07-24T05:31:04;18.30;99.90
58983;DHT22;44771;49.982;8.560;2023-07-24T05:36:06;18.40;99.90
58983;DHT22;44771;49.982;8.560;2023-07-24T05:41:11;18.60;99.90
58983;DHT22;44771;49.982;8.560;2023-07-24T05:46:16;18.70;99.90
58983;DHT22;44771;49.982;8.560;2023-07-24T05:51:17;18.70;99.90
58983;DHT22;44771;49.982;8.560;2023-07-24T05:56:19;18.90;99.90
58983;DHT22;44771;49.982;8.560;2023-07-24T06:01:23;19.00;99.90
58983;DHT22;44771;49.982;8.560;2023-07-24T06:06:24;19.10;99.90
58983;DHT22;44771;49.982;8.560;2023-07-24T06:11:26;19.10;99.90
58983;DHT22;44771;49.982;8.560;2023-07-24T06:16:29;19.20;99.90
58983;DHT22;44771;49.982;8.560;2023-07-24T06:21:32;19.30;99.90
58983;DHT22;44771;49.982;8.560;2023-07-24T06:26:33;19.40;99.90
58983;DHT22;44771;49.982;8.560;2023-07-24T06:31:37;19.50;99.90
58983;DHT22;44771;49.982;8.560;2023-07-24T06:36:38;19.50;99.90
58983;DHT22;44771;49.982;8.560;2023-07-24T06:41:40;19.60;99.90
58983;DHT22;44771;49.982;8.560;2023-07-24T06:46:43;19.80;99.90
58983;DHT22;44771;49.982;8.560;2023-07-24T06:51:45;20.00;99.90
58983;DHT22;44771;49.982;8.560;2023-07-24T06:56:47;20.00;99.90
58983;DHT22;44771;49.982;8.560;2023-07-24T07:01:50;20.20;99.90
58983;DHT22;44771;49.982;8.560;2023-07-24T07:06:52;20.30;99.90
58983;DHT22;44771;49.982;8.560;2023-07-24T07:11:53;20.30;99.90
58983;DHT22;44771;49.982;8.560;2023-07-24T07:16:57;20.50;99.90
58983;DHT22;44771;49.982;8.560;2023-07-24T07:21:58;20.70;99.90
58983;DHT22;44771;49.982;8.560;2023-07-24T07:27:00;21.00;99.90
58983;DHT22;44771;49.982;8.560;2023-07-24T07:32:04;21.40;99.90
58983;DHT22;44771;49.982;8.560;2023-07-24T07:37:06;21.60;99.90
58983;DHT22;44771;49.982;8.560;2023-07-24T07:42:08;21.80;99.90
58983;DHT22;44771;49.982;8.560;2023-07-24T07:47:20;22.00;99.90
58983;DHT22;44771;49.982;8.560;2023-07-24T07:52:22;22.20;99.50
58983;DHT22;44771;49.982;8.560;2023-07-24T07:57:24;22.30;98.80
58983;DHT22;44771;49.982;8.560;2023-07-24T08:02:27;22.40;99.10
58983;DHT22;44771;49.982;8.560;2023-07-24T08:07:30;22.50;98.60
58983;DHT22;44771;49.982;8.560;2023-07-24T08:12:32;22.40;98.50
58983;DHT22;44771;49.982;8.560;2023-07-24T08:17:35;22.20;97.90
58983;DHT22;44771;49.982;8.560;2023-07-24T08:22:37;22.20;98.50
58983;DHT22;44771;49.982;8.560;2023-07-24T08:27:39;22.40;98.80
58983;DHT22;44771;49.982;8.560;2023-07-24T08:33:03;22.70;98.20
58983;DHT22;44771;49.982;8.560;2023-07-24T08:38:04;22.90;98.10
58983;DHT22;44771;49.982;8.560;2023-07-24T08:43:06;22.80;97.40
58983;DHT22;44771;49.982;8.560;2023-07-24T08:48:10;22.70;97.30
58983;DHT22;44771;49.982;8.560;2023-07-24T08:53:14;22.60;97.60
58983;DHT22;44771;49.982;8.560;2023-07-24T08:58:18;22.70;97.70
58983;DHT22;44771;49.982;8.560;2023-07-24T09:03:21;23.00;97.80
58983;DHT22;44771;49.982;8.560;2023-07-24T09:08:30;23.50;97.30
58983;DHT22;44771;49.982;8.560;2023-07-24T09:13:32;23.90;95.90
58983;DHT22;44771;49.982;8.560;2023-07-24T09:18:42;24.20;95.30
58983;DHT22;44771;49.982;8.560;2023-07-24T09:23:44;24.00;94.50
58983;DHT22;44771;49.982;8.560;2023-07-24T09:28:52;23.50;95.80
58983;DHT22;44771;49.982;8.560;2023-07-24T09:33:56;23.30;95.60
58983;DHT22;44771;49.982;8.560;2023-07-24T09:39:00;23.10;96.20
58983;DHT22;44771;49.982;8.560;2023-07-24T09:44:02;23.00;96.30
58983;DHT22;44771;49.982;8.560;2023-07-24T09:49:05;23.10;97.60
58983;DHT22;44771;49.982;8.560;2023-07-24T09:54:15;23.40;95.80
58983;DHT22;44771;49.982;8.560;2023-07-24T09:59:17;23.60;96.20
58983;DHT22;44771;49.982;8.560;2023-07-24T10:04:22;24.60;95.50
58983;DHT22;44771;49.982;8.560;2023-07-24T10:09:24;24.80;93.90
58983;DHT22;44771;49.982;8.560;2023-07-24T10:14:31;24.40;93.70
58983;DHT22;44771;49.982;8.560;2023-07-24T10:19:39;24.20;94.80
58983;DHT22;44771;49.982;8.560;2023-07-24T10:24:41;24.20;94.10
58983;DHT22;44771;49.982;8.560;2023-07-24T10:29:43;24.20;93.70
58983;DHT22;44771;49.982;8.560;2023-07-24T10:34:55;24.30;94.30
58983;DHT22;44771;49.982;8.560;2023-07-24T10:39:57;24.50;94.20
58983;DHT22;44771;49.982;8.560;2023-07-24T10:45:04;24.70;93.70
58983;DHT22;44771;49.982;8.560;2023-07-24T10:50:08;24.80;93.00
58983;DHT22;44771;49.982;8.560;2023-07-24T10:55:10;25.00;92.90
58983;DHT22;44771;49.982;8.560;2023-07-24T11:00:13;25.20;91.20
58983;DHT22;44771;49.982;8.560;2023-07-24T11:05:17;25.30;91.90
58983;DHT22;44771;49.982;8.560;2023-07-24T11:10:20;25.30;90.80
58983;DHT22;44771;49.982;8.560;2023-07-24T11:15:25;25.40;90.20
58983;DHT22;44771;49.982;8.560;2023-07-24T11:20:28;25.20;90.20
58983;DHT22;44771;49.982;8.560;2023-07-24T11:25:30;25.30;89.20
58983;DHT22;44771;49.982;8.560;2023-07-24T11:30:33;25.40;88.40
58983;DHT22;44771;49.982;8.560;2023-07-24T11:35:37;25.40;88.80
58983;DHT22;44771;49.982;8.560;2023-07-24T11:40:41;25.60;89.00
58983;DHT22;44771;49.982;8.560;2023-07-24T11:45:46;25.60;87.60
58983;DHT22;44771;49.982;8.560;2023-07-24T11:50:52;25.90;85.80
58983;DHT22;44771;49.982;8.560;2023-07-24T11:55:58;26.30;83.40
58983;DHT22;44771;49.982;8.560;2023-07-24T12:01:03;26.50;82.10
58983;DHT22;44771;49.982;8.560;2023-07-24T12:06:15;26.90;79.60
58983;DHT22;44771;49.982;8.560;2023-07-24T12:11:17;27.20;78.90
58983;DHT22;44771;49.982;8.560;2023-07-24T12:16:22;27.60;77.30
58983;DHT22;44771;49.982;8.560;2023-07-24T12:21:28;27.40;74.00
58983;DHT22;44771;49.982;8.560;2023-07-24T12:26:30;27.30;75.00
58983;DHT22;44771;49.982;8.560;2023-07-24T12:31:32;27.60;74.60
58983;DHT22;44771;49.982;8.560;2023-07-24T12:36:36;27.60;73.80
58983;DHT22;44771;49.982;8.560;2023-07-24T12:41:38;27.90;75.00
58983;DHT22;44771;49.982;8.560;2023-07-24T12:46:40;27.40;74.10
58983;DHT22;44771;49.982;8.560;2023-07-24T12:51:43;26.80;76.80
58983;DHT22;44771;49.982;8.560;2023-07-24T12:56:45;26.60;77.10
58983;DHT22;44771;49.982;8.560;2023-07-24T13:01:47;26.30;78.10
58983;DHT22;44771;49.982;8.560;2023-07-24T13:06:50;25.80;79.60
58983;DHT22;44771;49.982;8.560;2023-07-24T13:11:55;25.40;80.90
58983;DHT22;44771;49.982;8.560;2023-07-24T13:16:58;25.20;82.20
58983;DHT22;44771;49.982;8.560;2023-07-24T13:22:06;25.10;82.90
58983;DHT22;44771;49.982;8.560;2023-07-24T13:27:09;24.90;83.00
58983;DHT22;44771;49.982;8.560;2023-07-24T13:32:14;24.80;83.90
58983;DHT22;44771;49.982;8.560;2023-07-24T13:37:17;24.60;84.60
58983;DHT22;44771;49.982;8.560;2023-07-24T13:42:19;24.60;85.30
58983;DHT22;44771;49.982;8.560;2023-07-24T13:47:20;24.50;86.10
58983;DHT22;44771;49.982;8.560;2023-07-24T13:52:24;23.70;98.00
58983;DHT22;44771;49.982;8.560;2023-07-24T13:57:26;21.80;99.90
58983;DHT22;44771;49.982;8.560;2023-07-24T14:02:28;21.20;99.90
58983;DHT22;44771;49.982;8.560;2023-07-24T14:07:31;21.00;99.90
58983;DHT22;44771;49.982;8.560;2023-07-24T14:12:33;20.60;99.90
58983;DHT22;44771;49.982;8.560;2023-07-24T14:17:35;20.50;99.90
58983;DHT22;44771;49.982;8.560;2023-07-24T14:22:38;20.50;99.90
58983;DHT22;44771;49.982;8.560;2023-07-24T14:27:40;21.10;99.90
58983;DHT22;44771;49.982;8.560;2023-07-24T14:32:41;21.60;99.90
58983;DHT22;44771;49.982;8.560;2023-07-24T14:37:45;21.90;99.90
58983;DHT22;44771;49.982;8.560;2023-07-24T14:42:46;21.90;99.90
58983;DHT22;44771;49.982;8.560;2023-07-24T14:47:48;22.00;99.90
58983;DHT22;44771;49.982;8.560;2023-07-24T14:52:52;22.10;99.90
58983;DHT22;44771;49.982;8.560;2023-07-24T14:57:54;22.30;99.90
58983;DHT22;44771;49.982;8.560;2023-07-24T15:02:56;22.50;99.90
58983;DHT22;44771;49.982;8.560;2023-07-24T15:07:59;22.60;99.90
58983;DHT22;44771;49.982;8.560;2023-07-24T15:13:01;22.80;99.90
58983;DHT22;44771;49.982;8.560;2023-07-24T15:18:03;22.30;99.90
58983;DHT22;44771;49.982;8.560;2023-07-24T15:23:06;21.70;99.90
58983;DHT22;44771;49.982;8.560;2023-07-24T15:28:10;21.20;99.90
58983;DHT22;44771;49.982;8.560;2023-07-24T15:33:12;20.90;99.90
58983;DHT22;44771;49.982;8.560;2023-07-24T15:38:15;20.10;99.90
58983;DHT22;44771;49.982;8.560;2023-07-24T15:43:17;19.30;99.90
58983;DHT22;44771;49.982;8.560;2023-07-24T15:48:19;19.50;99.90
58983;DHT22;44771;49.982;8.560;2023-07-24T15:53:29;19.90;99.90
58983;DHT22;44771;49.982;8.560;2023-07-24T15:58:30;20.10;99.90
58983;DHT22;44771;49.982;8.560;2023-07-24T16:03:32;20.30;99.90
58983;DHT22;44771;49.982;8.560;2023-07-24T16:08:35;20.40;99.90
58983;DHT22;44771;49.982;8.560;2023-07-24T16:13:40;20.40;99.90
58983;DHT22;44771;49.982;8.560;2023-07-24T16:18:43;20.10;99.90
58983;DHT22;44771;49.982;8.560;2023-07-24T16:23:46;20.10;99.90
58983;DHT22;44771;49.982;8.560;2023-07-24T16:28:51;20.00;99.90
58983;DHT22;44771;49.982;8.560;2023-07-24T16:33:53;19.80;99.90
58983;DHT22;44771;49.982;8.560;2023-07-24T16:38:56;19.70;99.90
58983;DHT22;44771;49.982;8.560;2023-07-24T16:44:18;19.50;99.90
58983;DHT22;44771;49.982;8.560;2023-07-24T16:49:30;19.40;99.90
58983;DHT22;44771;49.982;8.560;2023-07-24T16:55:20;19.10;99.90
58983;DHT22;44771;49.982;8.560;2023-07-24T17:00:36;18.90;99.90
58983;DHT22;44771;49.982;8.560;2023-07-24T17:05:38;18.80;99.90
58983;DHT22;44771;49.982;8.560;2023-07-24T17:11:15;18.80;99.90
58983;DHT22;44771;49.982;8.560;2023-07-24T17:16:34;19.00;99.90
58983;DHT22;44771;49.982;8.560;2023-07-24T17:21:39;18.90;99.90
58983;DHT22;44771;49.982;8.560;2023-07-24T17:26:50;19.00;99.90
58983;DHT22;44771;49.982;8.560;2023-07-24T17:31:57;19.10;99.90
58983;DHT22;44771;49.982;8.560;2023-07-24T17:37:02;18.90;99.90
58983;DHT22;44771;49.982;8.560;2023-07-24T17:42:16;18.90;99.90
58983;DHT22;44771;49.982;8.560;2023-07-24T17:47:21;18.70;99.90
58983;DHT22;44771;49.982;8.560;2023-07-24T17:52:23;18.60;99.90
58983;DHT22;44771;49.982;8.560;2023-07-24T17:57:29;18.50;99.90
58983;DHT22;44771;49.982;8.560;2023-07-24T18:02:31;18.70;99.90
58983;DHT22;44771;49.982;8.560;2023-07-24T18:07:36;18.80;99.90
58983;DHT22;44771;49.982;8.560;2023-07-24T18:12:47;18.80;99.90
58983;DHT22;44771;49.982;8.560;2023-07-24T18:17:59;18.90;99.90
58983;DHT22;44771;49.982;8.560;2023-07-24T18:23:01;18.80;99.90
58983;DHT22;44771;49.982;8.560;2023-07-24T18:28:07;18.70;99.90
58983;DHT22;44771;49.982;8.560;2023-07-24T18:33:28;18.50;99.90
58983;DHT22;44771;49.982;8.560;2023-07-24T18:38:33;18.50;99.90
58983;DHT22;44771;49.982;8.560;2023-07-24T18:43:37;18.40;99.90
58983;DHT22;44771;49.982;8.560;2023-07-24T18:48:39;18.20;99.90
58983;DHT22;44771;49.982;8.560;2023-07-24T18:53:40;18.20;99.90
58983;DHT22;44771;49.982;8.560;2023-07-24T18:58:43;18.20;99.90
58983;DHT22;44771;49.982;8.560;2023-07-24T19:03:45;18.30;99.90
58983;DHT22;44771;49.982;8.560;2023-07-24T19:08:47;18.50;99.90
58983;DHT22;44771;49.982;8.560;2023-07-24T19:13:50;18.50;99.90
58983;DHT22;44771;49.982;8.560;2023-07-24T19:18:52;18.50;99.90
58983;DHT22;44771;49.982;8.560;2023-07-24T19:29:33;18.50;99.90
58983;DHT22;44771;49.982;8.560;2023-07-24T19:34:54;18.40;99.90
58983;DHT22;44771;49.982;8.560;2023-07-24T19:40:04;18.50;99.90
58983;DHT22;44771;49.982;8.560;2023-07-24T19:45:24;18.40;99.90
58983;DHT22;44771;49.982;8.560;2023-07-24T19:50:27;18.40;99.90
58983;DHT22;44771;49.982;8.560;2023-07-24T19:55:28;18.40;99.90
58983;DHT22;44771;49.982;8.560;2023-07-24T20:00:35;18.60;99.90
58983;DHT22;44771;49.982;8.560;2023-07-24T20:05:39;18.60;99.90
58983;DHT22;44771;49.982;8.560;2023-07-24T20:10:43;18.60;99.90
58983;DHT22;44771;49.982;8.560;2023-07-24T20:15:46;18.40;99.90
58983;DHT22;44771;49.982;8.560;2023-07-24T20:20:49;18.30;99.90
58983;DHT22;44771;49.982;8.560;2023-07-24T20:25:51;18.30;99.90
58983;DHT22;44771;49.982;8.560;2023-07-24T20:30:55;18.10;99.90
58983;DHT22;44771;49.982;8.560;2023-07-24T20:35:56;18.10;99.90
58983;DHT22;44771;49.982;8.560;2023-07-24T20:41:01;18.00;99.90
58983;DHT22;44771;49.982;8.560;2023-07-24T20:46:11;17.90;99.90
58983;DHT22;44771;49.982;8.560;2023-07-24T20:51:15;17.90;99.90
58983;DHT22;44771;49.982;8.560;2023-07-24T20:56:17;17.80;99.90
58983;DHT22;44771;49.982;8.560;2023-07-24T21:01:20;17.80;99.90
58983;DHT22;44771;49.982;8.560;2023-07-24T21:06:22;17.80;99.90
58983;DHT22;44771;49.982;8.560;2023-07-24T21:11:24;17.70;99.90
58983;DHT22;44771;49.982;8.560;2023-07-24T21:16:27;17.70;99.90
58983;DHT22;44771;49.982;8.560;2023-07-24T21:21:29;17.60;99.90
58983;DHT22;44771;49.982;8.560;2023-07-24T21:26:31;17.50;99.90
58983;DHT22;44771;49.982;8.560;2023-07-24T21:31:34;17.30;99.90
58983;DHT22;44771;49.982;8.560;2023-07-24T21:36:38;17.10;99.90
58983;DHT22;44771;49.982;8.560;2023-07-24T21:41:40;17.00;99.90
58983;DHT22;44771;49.982;8.560;2023-07-24T21:47:12;16.90;99.90
58983;DHT22;44771;49.982;8.560;2023-07-24T21:52:20;16.80;99.90
58983;DHT22;44771;49.982;8.560;2023-07-24T21:57:22;16.60;99.90
58983;DHT22;44771;49.982;8.560;2023-07-24T22:02:25;16.40;99.90
58983;DHT22;44771;49.982;8.560;2023-07-24T22:07:27;16.20;99.90
58983;DHT22;44771;49.982;8.560;2023-07-24T22:12:29;16.10;99.90
58983;DHT22;44771;49.982;8.560;2023-07-24T22:17:32;16.00;99.90
58983;DHT22;44771;49.982;8.560;2023-07-24T22:22:34;16.00;99.90
58983;DHT22;44771;49.982;8.560;2023-07-24T22:27:36;15.80;99.90
58983;DHT22;44771;49.982;8.560;2023-07-24T22:32:39;15.90;99.90
58983;DHT22;44771;49.982;8.560;2023-07-24T22:37:41;15.90;99.90
58983;DHT22;44771;49.982;8.560;2023-07-24T22:42:43;16.00;99.90
58983;DHT22;44771;49.982;8.560;2023-07-24T22:47:46;16.10;99.90
58983;DHT22;44771;49.982;8.560;2023-07-24T22:52:50;16.20;99.90
58983;DHT22;44771;49.982;8.560;2023-07-24T22:57:52;16.20;99.90
58983;DHT22;44771;49.982;8.560;2023-07-24T23:02:59;16.10;99.90
58983;DHT22;44771;49.982;8.560;2023-07-24T23:08:01;16.00;99.90
58983;DHT22;44771;49.982;8.560;2023-07-24T23:13:03;15.80;99.90
58983;DHT22;44771;49.982;8.560;2023-07-24T23:18:06;15.70;99.90
58983;DHT22;44771;49.982;8.560;2023-07-24T23:23:07;15.60;99.90
58983;DHT22;44771;49.982;8.560;2023-07-24T23:28:10;15.60;99.90
58983;DHT22;44771;49.982;8.560;2023-07-24T23:33:13;15.50;99.90
58983;DHT22;44771;49.982;8.560;2023-07-24T23:38:14;15.40;99.90
58983;DHT22;44771;49.982;8.560;2023-07-24T23:43:16;15.40;99.90
58983;DHT22;44771;49.982;8.560;2023-07-24T23:48:20;15.50;99.90
58983;DHT22;44771;49.982;8.560;2023-07-24T23:53:22;15.50;99.90
58983;DHT22;44771;49.982;8.560;2023-07-24T23:58:23;15.60;99.90
